createdAt,value
2018-07-17T00:01:43.591Z,59.00
2018-07-17T00:04:11.117Z,59.20
2018-07-17T00:06:39.012Z,58.90
2018-07-17T00:09:07.165Z,59.10
2018-07-17T00:11:34.695Z,59.60
2018-07-17T00:16:29.848Z,59.90
2018-07-17T00:18:57.372Z,59.50
2018-07-17T00:23:52.368Z,58.80
2018-07-17T00:26:20.012Z,58.90
2018-07-17T00:28:47.535Z,59.40
2018-07-17T00:31:15.081Z,59.50
2018-07-17T00:33:42.581Z,59.90
2018-07-17T00:36:10.203Z,59.60
2018-07-17T00:38:37.733Z,59.40
2018-07-17T00:41:05.261Z,59.10
2018-07-17T00:43:32.814Z,59.30
2018-07-17T00:46:00.434Z,60.00
2018-07-17T00:48:27.958Z,59.90
2018-07-17T00:50:55.452Z,59.80
2018-07-17T00:53:22.995Z,59.60
2018-07-17T00:55:50.501Z,60.10
2018-07-17T00:58:18.040Z,60.70
2018-07-17T01:00:45.550Z,59.90
2018-07-17T01:03:19.316Z,59.10
2018-07-17T01:05:52.868Z,59.00
2018-07-17T01:08:26.144Z,59.00
2018-07-17T01:10:59.385Z,59.90
2018-07-17T01:13:50.803Z,60.00
2018-07-17T01:16:18.391Z,60.00
2018-07-17T01:18:45.901Z,60.20
2018-07-17T01:21:13.384Z,60.40
2018-07-17T01:23:41.044Z,60.10
2018-07-17T01:26:08.845Z,60.10
2018-07-17T01:28:36.417Z,60.90
2018-07-17T01:31:03.920Z,60.20
2018-07-17T01:33:31.677Z,60.20
2018-07-17T01:35:59.168Z,60.60
2018-07-17T01:38:26.778Z,60.70
2018-07-17T01:40:54.300Z,61.30
2018-07-17T01:43:21.848Z,61.30
2018-07-17T01:45:49.336Z,60.90
2018-07-17T01:48:16.925Z,60.80
2018-07-17T01:50:44.420Z,61.20
2018-07-17T01:53:11.941Z,61.70
2018-07-17T01:55:39.439Z,61.40
2018-07-17T01:58:07.047Z,61.80
2018-07-17T02:00:34.612Z,61.20
2018-07-17T02:03:02.160Z,61.00
2018-07-17T02:05:29.660Z,61.30
2018-07-17T02:07:57.512Z,61.60
2018-07-17T02:10:25.029Z,61.40
2018-07-17T02:12:52.546Z,62.00
2018-07-17T02:15:20.163Z,62.30
2018-07-17T02:17:47.668Z,62.70
2018-07-17T02:20:15.488Z,62.10
2018-07-17T02:22:43.016Z,61.70
2018-07-17T02:25:10.639Z,61.70
2018-07-17T02:27:38.136Z,62.20
2018-07-17T02:30:05.785Z,61.80
2018-07-17T02:32:33.313Z,61.20
2018-07-17T02:35:00.923Z,61.10
2018-07-17T02:37:28.484Z,61.80
2018-07-17T02:39:56.033Z,61.80
2018-07-17T02:42:23.707Z,61.10
2018-07-17T02:44:51.389Z,61.30
2018-07-17T02:47:18.936Z,61.90
2018-07-17T02:49:46.469Z,62.10
2018-07-17T02:52:13.995Z,61.70
2018-07-17T02:54:41.961Z,62.00
2018-07-17T02:57:09.636Z,62.20
2018-07-17T02:59:37.153Z,62.70
2018-07-17T03:02:04.696Z,62.50
2018-07-17T03:04:32.251Z,62.70
2018-07-17T03:06:59.841Z,62.70
2018-07-17T03:09:27.363Z,62.50
2018-07-17T03:14:22.673Z,62.10
2018-07-17T03:19:17.718Z,64.00
2018-07-17T03:21:45.228Z,62.80
2018-07-17T03:24:12.812Z,62.30
2018-07-17T03:26:40.707Z,62.40
2018-07-17T03:29:08.532Z,62.20
2018-07-17T03:31:36.089Z,62.10
2018-07-17T03:34:03.600Z,62.10
2018-07-17T03:36:31.162Z,62.60
2018-07-17T03:38:58.633Z,62.20
2018-07-17T03:41:26.434Z,62.20
2018-07-17T03:46:21.477Z,63.30
2018-07-17T03:48:48.995Z,63.30
2018-07-17T03:51:16.585Z,62.70
2018-07-17T03:53:44.298Z,63.00
2018-07-17T03:56:11.848Z,63.00
2018-07-17T03:58:39.383Z,63.60
2018-07-17T04:01:06.983Z,63.40
2018-07-17T04:03:34.517Z,62.90
2018-07-17T04:06:02.461Z,62.90
2018-07-17T04:08:29.974Z,63.00
2018-07-17T04:13:25.085Z,63.80
2018-07-17T04:15:52.616Z,64.60
2018-07-17T04:18:20.129Z,64.00
2018-07-17T04:20:47.993Z,64.00
2018-07-17T04:25:43.016Z,65.10
2018-07-17T04:28:10.537Z,64.50
2018-07-17T04:30:38.011Z,64.40
2018-07-17T04:33:05.573Z,64.60
2018-07-17T04:35:34.125Z,65.00
2018-07-17T04:38:01.664Z,65.20
2018-07-17T04:40:29.180Z,65.30
2018-07-17T04:42:57.145Z,65.20
2018-07-17T04:45:25.010Z,66.10
2018-07-17T04:47:52.590Z,65.90
2018-07-17T04:50:20.223Z,65.70
2018-07-17T04:52:47.805Z,65.40
2018-07-17T04:55:15.489Z,65.90
2018-07-17T04:57:43.200Z,66.00
2018-07-17T05:02:38.540Z,66.30
2018-07-17T05:05:06.608Z,65.70
2018-07-17T05:07:34.136Z,65.90
2018-07-17T05:10:02.135Z,66.00
2018-07-17T05:12:29.640Z,65.90
2018-07-17T05:14:58.076Z,66.30
2018-07-17T05:17:25.621Z,67.10
2018-07-17T05:19:53.126Z,67.40
2018-07-17T05:22:20.942Z,67.20
2018-07-17T05:24:49.033Z,67.30
2018-07-17T05:27:16.876Z,67.20
2018-07-17T05:29:44.434Z,67.40
2018-07-17T05:32:12.191Z,67.90
2018-07-17T05:34:40.665Z,67.50
2018-07-17T05:37:08.206Z,67.40
2018-07-17T05:39:35.699Z,68.10
2018-07-17T05:42:03.292Z,67.30
2018-07-17T05:44:30.851Z,67.00
2018-07-17T05:46:58.789Z,67.10
2018-07-17T05:49:26.509Z,66.20
2018-07-17T05:51:54.333Z,66.60
2018-07-17T05:54:21.873Z,66.50
2018-07-17T05:56:50.136Z,66.40
2018-07-17T05:59:18.093Z,66.10
2018-07-17T06:01:45.727Z,66.10
2018-07-17T06:04:14.392Z,65.60
2018-07-17T06:06:42.909Z,65.60
2018-07-17T06:09:11.232Z,65.60
2018-07-17T06:11:39.488Z,65.10
2018-07-17T06:14:07.026Z,65.40
2018-07-17T06:16:34.573Z,66.10
2018-07-17T06:19:04.626Z,65.60
2018-07-17T06:21:32.400Z,65.70
2018-07-17T06:26:28.371Z,66.00
2018-07-17T06:28:56.559Z,65.30
2018-07-17T06:31:24.090Z,65.00
2018-07-17T06:33:51.833Z,65.20
2018-07-17T06:36:20.943Z,65.70
2018-07-17T06:38:48.952Z,65.20
2018-07-17T06:41:16.466Z,65.10
2018-07-17T06:43:44.030Z,65.00
2018-07-17T06:46:12.880Z,64.70
2018-07-17T06:48:40.850Z,65.10
2018-07-17T06:51:08.348Z,65.10
2018-07-17T06:53:37.227Z,65.10
2018-07-17T06:56:04.848Z,64.60
2018-07-17T06:58:32.488Z,64.10
2018-07-17T07:01:00.043Z,64.10
2018-07-17T07:03:28.290Z,63.20
2018-07-17T07:05:56.856Z,63.30
2018-07-17T07:08:24.661Z,62.30
2018-07-17T07:10:54.285Z,62.60
2018-07-17T07:15:49.660Z,62.80
2018-07-17T07:18:18.760Z,62.80
2018-07-17T07:20:46.632Z,62.60
2018-07-17T07:23:15.220Z,62.40
2018-07-17T07:25:43.021Z,60.90
2018-07-17T07:28:11.914Z,60.40
2018-07-17T07:30:39.704Z,60.80
2018-07-17T07:35:35.009Z,59.70
2018-07-17T07:38:02.745Z,59.20
2018-07-17T07:40:30.322Z,59.30
2018-07-17T07:42:58.416Z,60.50
2018-07-17T07:45:26.369Z,60.40
2018-07-17T07:47:54.998Z,59.10
2018-07-17T07:50:22.557Z,57.00
2018-07-17T07:52:52.323Z,57.00
2018-07-17T07:55:19.954Z,56.90
2018-07-17T07:57:47.938Z,55.90
2018-07-17T08:00:15.478Z,56.90
2018-07-17T08:02:43.101Z,56.40
2018-07-17T08:05:11.701Z,55.90
2018-07-17T08:07:39.490Z,54.40
2018-07-17T08:10:07.224Z,55.50
2018-07-17T08:12:35.369Z,54.80
2018-07-17T08:15:03.147Z,53.90
2018-07-17T08:17:30.824Z,54.60
2018-07-17T08:19:58.672Z,54.80
2018-07-17T08:22:26.308Z,52.10
2018-07-17T08:24:54.642Z,51.20
2018-07-17T08:27:22.181Z,51.40
2018-07-17T08:29:49.925Z,51.30
2018-07-17T08:32:17.773Z,51.20
2018-07-17T08:37:12.909Z,48.40
2018-07-17T08:39:40.619Z,48.20
2018-07-17T08:42:08.250Z,47.60
2018-07-17T08:44:36.049Z,46.50
2018-07-17T08:47:03.792Z,45.40
2018-07-17T08:49:31.627Z,44.30
2018-07-17T08:51:59.423Z,44.40
2018-07-17T08:54:27.041Z,45.00
2018-07-17T08:56:54.593Z,43.50
2018-07-17T08:59:22.456Z,42.00
2018-07-17T09:04:17.959Z,40.60
2018-07-17T09:06:45.687Z,42.20
2018-07-17T09:09:13.240Z,42.40
2018-07-17T09:11:40.804Z,41.10
2018-07-17T09:14:08.353Z,40.50
2018-07-17T09:16:35.884Z,40.50
2018-07-17T09:19:04.425Z,41.10
2018-07-17T09:21:32.046Z,41.80
2018-07-17T09:23:59.745Z,40.60
2018-07-17T09:26:27.461Z,40.50
2018-07-17T09:28:55.054Z,39.80
2018-07-17T09:31:22.821Z,39.50
2018-07-17T09:33:50.521Z,38.20
2018-07-17T09:38:45.913Z,36.90
2018-07-17T09:41:13.565Z,37.30
2018-07-17T09:43:41.153Z,37.00
2018-07-17T09:46:08.715Z,37.40
2018-07-17T09:48:36.413Z,37.50
2018-07-17T09:51:04.713Z,36.70
2018-07-17T09:53:33.246Z,37.80
2018-07-17T09:56:00.802Z,36.70
2018-07-17T09:58:28.432Z,35.70
2018-07-17T10:01:01.947Z,36.10
2018-07-17T10:03:30.693Z,36.80
2018-07-17T10:05:58.272Z,36.50
2018-07-17T10:08:25.869Z,35.50
2018-07-17T10:10:53.684Z,35.60
2018-07-17T10:13:21.283Z,36.70
2018-07-17T10:15:48.895Z,37.70
2018-07-17T10:18:16.492Z,37.50
2018-07-17T10:20:44.143Z,37.20
2018-07-17T10:25:46.237Z,37.70
2018-07-17T10:28:13.813Z,38.50
2018-07-17T10:30:41.556Z,39.10
2018-07-17T10:33:09.502Z,37.90
2018-07-17T10:35:37.012Z,36.80
2018-07-17T10:38:04.724Z,35.40
2018-07-17T10:40:32.448Z,35.10
2018-07-17T10:43:01.061Z,34.60
2018-07-17T10:45:28.645Z,34.90
2018-07-17T10:47:56.522Z,35.00
2018-07-17T10:50:26.408Z,35.10
2018-07-17T10:52:54.553Z,35.00
2018-07-17T10:55:22.284Z,35.20
2018-07-17T10:57:50.197Z,33.60
2018-07-17T11:00:17.978Z,32.20
2018-07-17T11:02:45.633Z,32.00
2018-07-17T11:05:15.957Z,30.20
2018-07-17T11:07:44.305Z,30.00
2018-07-17T11:10:11.866Z,29.90
2018-07-17T11:12:39.671Z,30.60
2018-07-17T11:17:35.189Z,29.60
2018-07-17T11:20:02.732Z,29.20
2018-07-17T11:22:30.496Z,29.30
2018-07-17T11:24:58.165Z,29.70
2018-07-17T11:27:25.918Z,29.10
2018-07-17T11:29:53.686Z,29.90
2018-07-17T11:32:21.373Z,29.90
2018-07-17T11:34:49.245Z,29.90
2018-07-17T11:37:16.845Z,30.00
2018-07-17T11:39:44.709Z,31.90
2018-07-17T11:42:12.342Z,31.60
2018-07-17T11:44:40.101Z,32.20
2018-07-17T11:47:07.935Z,32.70
2018-07-17T11:49:35.473Z,32.70
2018-07-17T11:52:03.650Z,32.50
2018-07-17T11:54:31.209Z,34.30
2018-07-17T11:56:58.797Z,35.30
2018-07-17T11:59:26.553Z,33.70
2018-07-17T12:01:55.765Z,34.20
2018-07-17T12:04:23.620Z,35.00
2018-07-17T12:06:51.601Z,36.00
2018-07-17T12:09:19.200Z,34.00
2018-07-17T12:11:46.843Z,33.50
2018-07-17T12:14:15.273Z,33.30
2018-07-17T12:16:43.231Z,32.90
2018-07-17T12:19:11.689Z,34.20
2018-07-17T12:21:39.320Z,33.10
2018-07-17T12:24:06.949Z,33.00
2018-07-17T12:26:34.607Z,33.20
2018-07-17T12:29:02.524Z,33.90
2018-07-17T12:31:30.072Z,33.50
2018-07-17T12:33:57.725Z,34.20
2018-07-17T12:36:26.289Z,34.20
2018-07-17T12:38:53.846Z,35.30
2018-07-17T12:41:21.797Z,33.80
2018-07-17T12:43:49.405Z,32.70
2018-07-17T12:46:16.948Z,32.30
2018-07-17T12:48:44.690Z,32.90
2018-07-17T12:51:12.449Z,31.60
2018-07-17T12:53:40.173Z,31.60
2018-07-17T12:56:08.090Z,31.80
2018-07-17T12:58:35.700Z,31.80
2018-07-17T13:01:04.362Z,31.70
2018-07-17T13:06:02.920Z,35.30
2018-07-17T13:08:30.675Z,33.60
2018-07-17T13:10:58.527Z,33.90
2018-07-17T13:13:26.246Z,33.80
2018-07-17T13:15:53.882Z,33.60
2018-07-17T13:18:21.385Z,34.00
2018-07-17T13:20:49.141Z,34.90
2018-07-17T13:23:16.753Z,36.00
2018-07-17T13:25:44.510Z,36.20
2018-07-17T13:28:14.139Z,35.80
2018-07-17T13:30:41.664Z,36.00
2018-07-17T13:33:09.263Z,35.50
2018-07-17T13:35:37.314Z,34.50
2018-07-17T13:38:05.405Z,33.90
2018-07-17T13:40:33.093Z,34.10
2018-07-17T13:43:00.936Z,35.30
2018-07-17T13:45:28.533Z,32.90
2018-07-17T13:47:56.062Z,32.40
2018-07-17T13:50:23.762Z,33.00
2018-07-17T13:52:51.967Z,34.00
2018-07-17T13:55:19.791Z,32.10
2018-07-17T13:57:47.330Z,32.60
2018-07-17T14:00:15.124Z,33.80
2018-07-17T14:02:42.779Z,34.60
2018-07-17T14:05:10.402Z,35.00
2018-07-17T14:07:38.228Z,34.90
2018-07-17T14:10:05.911Z,36.10
2018-07-17T14:12:33.658Z,34.40
2018-07-17T14:15:01.362Z,33.80
2018-07-17T14:17:29.068Z,33.60
2018-07-17T14:19:57.584Z,34.30
2018-07-17T14:22:25.577Z,34.50
2018-07-17T14:24:53.357Z,31.50
2018-07-17T14:27:21.074Z,32.10
2018-07-17T14:29:48.683Z,32.50
2018-07-17T14:32:16.253Z,32.80
2018-07-17T14:34:43.992Z,32.60
2018-07-17T14:37:11.649Z,32.20
2018-07-17T14:39:39.485Z,31.60
2018-07-17T14:42:07.033Z,31.20
2018-07-17T14:44:36.001Z,32.10
2018-07-17T14:47:03.769Z,32.80
2018-07-17T14:49:31.713Z,31.70
2018-07-17T14:51:59.700Z,32.70
2018-07-17T14:54:27.327Z,33.10
2018-07-17T14:56:54.988Z,32.60
2018-07-17T14:59:24.167Z,31.70
2018-07-17T15:01:51.998Z,31.50
2018-07-17T15:04:19.748Z,31.20
2018-07-17T15:06:47.486Z,31.20
2018-07-17T15:09:15.176Z,31.80
2018-07-17T15:11:43.176Z,31.30
2018-07-17T15:14:10.934Z,31.40
2018-07-17T15:16:38.557Z,30.70
2018-07-17T15:19:06.417Z,31.20
2018-07-17T15:21:34.158Z,33.70
2018-07-17T15:24:01.740Z,34.20
2018-07-17T15:26:30.705Z,33.80
2018-07-17T15:28:58.253Z,35.10
2018-07-17T15:31:25.928Z,33.80
2018-07-17T15:33:54.941Z,34.50
2018-07-17T15:36:22.807Z,33.20
2018-07-17T15:38:50.386Z,33.40
2018-07-17T15:41:17.893Z,33.70
2018-07-17T15:43:45.457Z,34.30
2018-07-17T15:48:40.737Z,34.20
2018-07-17T15:51:08.457Z,33.90
2018-07-17T15:53:36.265Z,33.30
2018-07-17T15:56:04.233Z,33.90
2018-07-17T15:58:31.852Z,33.70
2018-07-17T16:00:59.495Z,32.50
2018-07-17T16:03:27.120Z,33.20
2018-07-17T16:05:54.721Z,35.40
2018-07-17T16:08:22.340Z,36.10
2018-07-17T16:10:49.979Z,37.20
2018-07-17T16:13:18.077Z,36.60
2018-07-17T16:15:45.617Z,37.60
2018-07-17T16:18:13.586Z,38.40
2018-07-17T16:20:41.190Z,40.10
2018-07-17T16:25:37.393Z,39.80
2018-07-17T16:28:05.121Z,39.50
2018-07-17T16:30:32.749Z,39.90
2018-07-17T16:33:00.460Z,39.60
2018-07-17T16:35:28.145Z,40.80
2018-07-17T16:37:55.930Z,40.80
2018-07-17T16:40:23.826Z,41.30
2018-07-17T16:42:51.857Z,39.80
2018-07-17T16:45:19.493Z,40.40
2018-07-17T16:47:47.097Z,40.30
2018-07-17T16:50:15.069Z,40.80
2018-07-17T16:52:42.563Z,41.40
2018-07-17T16:55:10.664Z,41.50
2018-07-17T16:57:38.286Z,41.40
2018-07-17T17:00:06.493Z,41.60
2018-07-17T17:02:34.164Z,41.60
2018-07-17T17:05:01.696Z,42.00
2018-07-17T17:07:29.284Z,41.80
2018-07-17T17:09:56.880Z,41.40
2018-07-17T17:12:25.417Z,41.30
2018-07-17T17:14:53.025Z,41.40
2018-07-17T17:17:21.753Z,40.30
2018-07-17T17:19:49.435Z,41.30
2018-07-17T17:22:17.045Z,41.70
2018-07-17T17:24:44.760Z,41.60
2018-07-17T17:27:12.580Z,41.90
2018-07-17T17:29:40.260Z,42.60
2018-07-17T17:32:07.890Z,42.80
2018-07-17T17:34:35.554Z,42.80
2018-07-17T17:37:03.181Z,43.00
2018-07-17T17:39:30.885Z,43.40
2018-07-17T17:41:58.512Z,42.90
2018-07-17T17:44:26.444Z,43.30
2018-07-17T17:46:54.086Z,43.50
2018-07-17T17:49:21.989Z,43.70
2018-07-17T17:51:49.658Z,43.80
2018-07-17T17:54:17.292Z,43.30
2018-07-17T17:56:44.934Z,43.20
2018-07-17T17:59:12.978Z,43.30
2018-07-17T18:01:40.862Z,43.50
2018-07-17T18:04:08.793Z,43.60
2018-07-17T18:06:36.444Z,43.80
2018-07-17T18:09:06.514Z,43.50
2018-07-17T18:11:34.410Z,43.20
2018-07-17T18:14:02.009Z,43.60
2018-07-17T18:16:29.930Z,43.70
2018-07-17T18:18:57.884Z,43.70
2018-07-17T18:21:25.469Z,44.30
2018-07-17T18:23:53.031Z,44.30
2018-07-17T18:26:20.610Z,43.60
2018-07-17T18:28:48.200Z,44.40
2018-07-17T18:31:15.804Z,45.10
2018-07-17T18:33:43.688Z,43.90
2018-07-17T18:38:38.835Z,44.10
2018-07-17T18:41:06.737Z,43.70
2018-07-17T18:43:34.385Z,43.30
2018-07-17T18:46:02.173Z,43.20
2018-07-17T18:48:29.947Z,43.50
2018-07-17T18:50:57.703Z,43.40
2018-07-17T18:53:25.418Z,43.40
2018-07-17T18:55:53.060Z,43.50
2018-07-17T18:58:20.901Z,43.60
2018-07-17T19:00:48.710Z,43.80
2018-07-17T19:03:16.444Z,44.40
2018-07-17T19:05:44.113Z,44.70
2018-07-17T19:08:11.754Z,45.00
2018-07-17T19:10:39.455Z,45.10
2018-07-17T19:13:07.092Z,45.40
2018-07-17T19:15:34.716Z,45.60
2018-07-17T19:18:02.488Z,45.40
2018-07-17T19:20:30.139Z,45.70
2018-07-17T19:22:57.765Z,45.60
2018-07-17T19:25:25.569Z,45.30
2018-07-17T19:27:53.328Z,45.20
2018-07-17T19:30:21.018Z,45.10
2018-07-17T19:32:48.730Z,45.30
2018-07-17T19:35:16.616Z,45.30
2018-07-17T19:37:44.477Z,45.30
2018-07-17T19:40:12.124Z,45.00
2018-07-17T19:42:40.115Z,45.20
2018-07-17T19:45:07.809Z,45.50
2018-07-17T19:47:35.464Z,45.30
2018-07-17T19:52:31.330Z,45.40
2018-07-17T19:54:59.311Z,45.50
2018-07-17T19:57:27.209Z,45.70
2018-07-17T19:59:55.037Z,46.30
2018-07-17T20:02:22.713Z,46.50
2018-07-17T20:04:50.634Z,46.60
2018-07-17T20:07:18.812Z,46.90
2018-07-17T20:09:46.669Z,47.10
2018-07-17T20:12:14.269Z,47.70
2018-07-17T20:14:41.861Z,47.70
2018-07-17T20:19:37.685Z,48.00
2018-07-17T20:22:05.529Z,48.10
2018-07-17T20:24:33.236Z,48.70
2018-07-17T20:27:01.137Z,48.30
2018-07-17T20:29:28.807Z,48.40
2018-07-17T20:31:56.841Z,48.30
2018-07-17T20:34:24.636Z,48.10
2018-07-17T20:36:52.736Z,48.30
2018-07-17T20:39:20.318Z,48.20
2018-07-17T20:41:47.888Z,48.80
2018-07-17T20:46:43.565Z,48.60
2018-07-17T20:51:39.086Z,48.90
2018-07-17T20:54:06.830Z,49.00
2018-07-17T20:56:34.537Z,49.10
2018-07-17T20:59:03.312Z,49.40
2018-07-17T21:01:31.107Z,49.40
2018-07-17T21:03:58.816Z,49.60
2018-07-17T21:06:26.636Z,49.20
2018-07-17T21:08:54.268Z,49.20
2018-07-17T21:11:22.491Z,49.20
2018-07-17T21:13:50.180Z,49.90
2018-07-17T21:16:18.339Z,50.40
2018-07-17T21:18:46.034Z,50.70
2018-07-17T21:21:13.890Z,50.90
2018-07-17T21:23:41.744Z,50.60
2018-07-17T21:26:09.407Z,50.60
2018-07-17T21:28:37.028Z,50.60
2018-07-17T21:31:04.677Z,50.80
2018-07-17T21:33:32.504Z,51.00
2018-07-17T21:36:00.404Z,51.20
2018-07-17T21:38:28.157Z,51.70
2018-07-17T21:40:56.085Z,51.80
2018-07-17T21:43:23.844Z,52.00
2018-07-17T21:45:51.532Z,52.00
2018-07-17T21:48:19.450Z,52.00
2018-07-17T21:50:47.234Z,51.80
2018-07-17T21:53:15.153Z,51.90
2018-07-17T21:55:42.950Z,52.10
2018-07-17T21:58:10.772Z,52.10
2018-07-17T22:00:38.518Z,52.40
2018-07-17T22:03:06.488Z,52.30
2018-07-17T22:05:35.005Z,52.40
2018-07-17T22:10:30.679Z,52.80
2018-07-17T22:12:58.669Z,52.80
2018-07-17T22:15:26.455Z,52.80
2018-07-17T22:17:54.317Z,52.70
2018-07-17T22:20:22.084Z,52.60
2018-07-17T22:22:49.897Z,52.80
2018-07-17T22:25:17.940Z,53.00
2018-07-17T22:30:13.912Z,53.60
2018-07-17T22:32:41.895Z,53.70
2018-07-17T22:35:09.557Z,53.80
2018-07-17T22:37:37.248Z,54.20
2018-07-17T22:40:05.075Z,54.10
2018-07-17T22:42:32.758Z,54.20
2018-07-17T22:45:00.410Z,54.00
2018-07-17T22:47:28.193Z,54.20
2018-07-17T22:49:55.753Z,54.50
2018-07-17T22:52:23.389Z,54.00
2018-07-17T22:54:51.229Z,54.30
2018-07-17T22:59:46.905Z,54.10
2018-07-17T23:02:14.935Z,54.00
2018-07-17T23:04:42.478Z,54.00
2018-07-17T23:07:10.482Z,54.20
2018-07-17T23:09:38.699Z,54.20
2018-07-17T23:12:08.208Z,54.20
2018-07-17T23:14:35.984Z,54.10
2018-07-17T23:19:31.235Z,54.00
2018-07-17T23:21:59.203Z,53.90
2018-07-17T23:24:26.810Z,54.00
2018-07-17T23:26:54.410Z,54.40
2018-07-17T23:29:23.348Z,54.70
2018-07-17T23:31:51.171Z,55.10
2018-07-17T23:34:18.886Z,55.00
2018-07-17T23:36:46.769Z,54.70
2018-07-17T23:39:14.487Z,54.40
2018-07-17T23:41:42.779Z,54.40
2018-07-17T23:44:10.850Z,54.20
2018-07-17T23:46:38.573Z,54.20
2018-07-17T23:49:06.173Z,54.20
2018-07-17T23:51:34.078Z,54.30
2018-07-17T23:54:01.829Z,54.30
2018-07-17T23:56:29.769Z,54.40
2018-07-17T23:58:57.648Z,54.20
